createdAt,value
2022-10-01T00:01:16.110Z,10.28
2022-10-01T00:03:21.906Z,10.31
2022-10-01T00:05:27.396Z,10.33
2022-10-01T00:07:32.992Z,10.35
2022-10-01T00:09:38.259Z,10.36
2022-10-01T00:11:43.672Z,10.34
2022-10-01T00:13:49.206Z,10.33
2022-10-01T00:15:54.482Z,10.34
2022-10-01T00:18:00.098Z,10.34
2022-10-01T00:20:10.821Z,10.33
2022-10-01T00:22:19.676Z,10.29
2022-10-01T00:24:25.164Z,10.28
2022-10-01T00:26:31.019Z,10.32
2022-10-01T00:28:36.477Z,10.33
2022-10-01T00:30:41.717Z,10.29
2022-10-01T00:32:47.660Z,10.28
2022-10-01T00:34:53.089Z,10.31
2022-10-01T00:36:58.664Z,10.32
2022-10-01T00:39:04.524Z,10.34
2022-10-01T00:41:09.962Z,10.35
2022-10-01T00:43:15.377Z,10.35
2022-10-01T00:45:20.681Z,10.37
2022-10-01T00:47:26.074Z,10.34
2022-10-01T00:49:31.549Z,10.35
2022-10-01T00:51:37.371Z,10.29
2022-10-01T00:53:42.853Z,10.22
2022-10-01T00:55:48.334Z,10.2
2022-10-01T00:57:56.656Z,10.18
2022-10-01T01:00:02.020Z,10.21
2022-10-01T01:02:07.741Z,10.17
2022-10-01T01:04:13.537Z,10.23
2022-10-01T01:06:18.932Z,10.28
2022-10-01T01:08:24.422Z,10.3
2022-10-01T01:10:29.938Z,10.32
2022-10-01T01:12:35.232Z,10.33
2022-10-01T01:14:40.609Z,10.35
2022-10-01T01:16:45.973Z,10.25
2022-10-01T01:18:52.658Z,10.25
2022-10-01T01:20:57.942Z,10.27
2022-10-01T01:23:03.058Z,10.29
2022-10-01T01:25:08.334Z,10.33
2022-10-01T01:27:13.963Z,10.34
2022-10-01T01:29:19.780Z,10.26
2022-10-01T01:31:25.275Z,10.25
2022-10-01T01:33:31.174Z,10.27
2022-10-01T01:35:37.174Z,10.28
2022-10-01T01:37:42.639Z,10.3
2022-10-01T01:39:47.930Z,10.28
2022-10-01T01:41:53.852Z,10.32
2022-10-01T01:43:59.262Z,10.35
2022-10-01T01:46:04.702Z,10.35
2022-10-01T01:48:10.516Z,10.37
2022-10-01T01:50:15.998Z,10.37
2022-10-01T01:52:21.389Z,10.37
2022-10-01T01:54:26.876Z,10.37
2022-10-01T01:56:32.327Z,10.37
2022-10-01T01:58:38.217Z,10.36
2022-10-01T02:00:43.820Z,10.36
2022-10-01T02:02:49.230Z,10.37
2022-10-01T02:04:55.447Z,10.36
2022-10-01T02:07:01.069Z,10.37
2022-10-01T02:09:06.400Z,10.38
2022-10-01T02:11:11.690Z,10.38
2022-10-01T02:13:17.002Z,10.4
2022-10-01T02:15:22.442Z,10.4
2022-10-01T02:17:27.838Z,10.41
2022-10-01T02:19:33.697Z,10.41
2022-10-01T02:21:39.263Z,10.42
2022-10-01T02:23:44.719Z,10.44
2022-10-01T02:25:49.946Z,10.44
2022-10-01T02:27:55.758Z,10.42
2022-10-01T02:30:01.416Z,10.33
2022-10-01T02:32:06.948Z,10.32
2022-10-01T02:34:12.903Z,10.25
2022-10-01T02:36:23.742Z,10.24
2022-10-01T02:38:29.477Z,10.25
2022-10-01T02:40:34.726Z,10.27
2022-10-01T02:42:40.236Z,10.31
2022-10-01T02:44:45.436Z,10.33
2022-10-01T02:46:50.928Z,10.33
2022-10-01T02:48:56.501Z,10.36
2022-10-01T02:51:02.008Z,10.37
2022-10-01T02:53:07.367Z,10.35
2022-10-01T02:55:12.771Z,10.34
2022-10-01T02:57:18.200Z,10.34
2022-10-01T02:59:23.496Z,10.38
2022-10-01T03:01:29.238Z,10.39
2022-10-01T03:03:35.891Z,10.32
2022-10-01T03:05:41.213Z,10.35
2022-10-01T03:07:46.788Z,10.36
2022-10-01T03:09:52.032Z,10.38
2022-10-01T03:11:57.289Z,10.37
2022-10-01T03:14:02.894Z,10.37
2022-10-01T03:16:08.749Z,10.38
2022-10-01T03:18:14.522Z,10.27
2022-10-01T03:20:19.970Z,10.18
2022-10-01T03:22:25.180Z,10.15
2022-10-01T03:24:30.772Z,10.15
2022-10-01T03:26:36.132Z,10.15
2022-10-01T03:28:41.561Z,10.17
2022-10-01T03:30:47.245Z,10.19
2022-10-01T03:32:52.748Z,10.2
2022-10-01T03:34:58.170Z,10.19
2022-10-01T03:37:03.507Z,10.18
2022-10-01T03:39:09.226Z,10.18
2022-10-01T03:41:14.689Z,10.18
2022-10-01T03:43:19.997Z,10.17
2022-10-01T03:45:25.504Z,10.19
2022-10-01T03:47:31.259Z,10.22
2022-10-01T03:49:39.960Z,10.23
2022-10-01T03:51:45.242Z,10.24
2022-10-01T03:53:50.804Z,10.24
2022-10-01T03:55:56.126Z,10.23
2022-10-01T03:58:01.459Z,10.24
2022-10-01T04:00:07.326Z,10.22
2022-10-01T04:02:13.661Z,10.21
2022-10-01T04:04:19.970Z,10.22
2022-10-01T04:06:25.569Z,10.21
2022-10-01T04:08:31.276Z,10.24
2022-10-01T04:10:36.708Z,10.23
2022-10-01T04:12:42.051Z,10.19
2022-10-01T04:14:47.621Z,10.19
2022-10-01T04:16:52.939Z,10.2
2022-10-01T04:18:58.146Z,10.2
2022-10-01T04:21:03.343Z,10.24
2022-10-01T04:23:08.869Z,10.28
2022-10-01T04:25:14.673Z,10.28
2022-10-01T04:27:20.493Z,10.29
2022-10-01T04:29:26.383Z,10.3
2022-10-01T04:31:32.423Z,10.32
2022-10-01T04:33:40.022Z,10.33
2022-10-01T04:35:45.555Z,10.34
2022-10-01T04:37:51.126Z,10.35
2022-10-01T04:39:56.370Z,10.37
2022-10-01T04:42:01.650Z,10.36
2022-10-01T04:44:07.653Z,10.31
2022-10-01T04:46:14.203Z,10.28
2022-10-01T04:48:19.925Z,10.3
2022-10-01T04:50:25.711Z,10.29
2022-10-01T04:52:31.674Z,10.27
2022-10-01T04:54:37.282Z,10.19
2022-10-01T04:56:42.312Z,10.17
2022-10-01T04:58:48.106Z,10.22
2022-10-01T05:04:22.625Z,10.31
2022-10-01T05:06:30.399Z,10.26
2022-10-01T05:08:35.762Z,10.19
2022-10-01T05:10:41.736Z,10.2
2022-10-01T05:12:47.242Z,10.26
2022-10-01T05:14:52.746Z,10.25
2022-10-01T05:16:58.307Z,10.28
2022-10-01T05:19:04.526Z,10.25
2022-10-01T05:21:10.304Z,10.23
2022-10-01T05:23:16.221Z,10.27
2022-10-01T05:25:21.667Z,10.3
2022-10-01T05:27:27.372Z,10.34
2022-10-01T05:29:33.269Z,10.32
2022-10-01T05:31:39.603Z,10.31
2022-10-01T05:33:47.617Z,10.39
2022-10-01T05:35:54.024Z,10.37
2022-10-01T05:37:59.540Z,10.4
2022-10-01T05:42:24.680Z,10.54
2022-10-01T05:44:30.641Z,10.59
2022-10-01T05:46:36.208Z,10.64
2022-10-01T05:48:42.056Z,10.64
2022-10-01T05:50:50.357Z,10.68
2022-10-01T05:52:55.918Z,10.69
2022-10-01T05:55:01.731Z,10.64
2022-10-01T05:57:10.932Z,10.61
2022-10-01T05:59:16.576Z,10.59
2022-10-01T06:01:22.842Z,10.63
2022-10-01T06:03:28.277Z,10.69
2022-10-01T06:05:33.837Z,10.71
2022-10-01T06:07:39.709Z,10.69
2022-10-01T06:09:45.814Z,10.75
2022-10-01T06:11:51.817Z,10.77
2022-10-01T06:13:57.529Z,10.77
2022-10-01T06:16:03.336Z,10.83
2022-10-01T06:18:09.656Z,10.87
2022-10-01T06:20:16.998Z,10.81
2022-10-01T06:22:22.561Z,10.84
2022-10-01T06:24:28.279Z,10.87
2022-10-01T06:26:34.655Z,10.94
2022-10-01T06:28:41.575Z,10.99
2022-10-01T06:30:47.834Z,10.95
2022-10-01T06:32:54.338Z,10.9
2022-10-01T06:35:00.824Z,10.87
2022-10-01T06:37:07.416Z,10.86
2022-10-01T06:39:14.171Z,11.04
2022-10-01T06:41:20.925Z,11.1
2022-10-01T06:43:39.820Z,11.25
2022-10-01T06:45:45.933Z,11.28
2022-10-01T06:47:52.092Z,11.37
2022-10-01T06:49:58.375Z,11.27
2022-10-01T06:52:04.827Z,11.18
2022-10-01T06:54:10.770Z,11.27
2022-10-01T06:56:17.777Z,11.35
2022-10-01T06:58:23.881Z,11.28
2022-10-01T07:00:30.100Z,11.23
2022-10-01T07:02:36.389Z,11.17
2022-10-01T07:04:43.486Z,11.39
2022-10-01T07:06:50.099Z,11.42
2022-10-01T07:08:57.425Z,11.6
2022-10-01T07:11:04.210Z,11.65
2022-10-01T07:13:10.765Z,11.83
2022-10-01T07:15:17.748Z,12.03
2022-10-01T07:17:24.382Z,12.16
2022-10-01T07:19:30.804Z,12.13
2022-10-01T07:21:40.072Z,12.09
2022-10-01T07:23:57.241Z,12.25
2022-10-01T07:26:25.502Z,12.38
2022-10-01T07:28:36.066Z,12.24
2022-10-01T07:30:42.392Z,12.13
2022-10-01T07:32:48.482Z,12.1
2022-10-01T07:34:58.310Z,12.02
2022-10-01T07:37:05.387Z,12.33
2022-10-01T07:39:11.784Z,12.58
2022-10-01T07:41:18.560Z,12.57
2022-10-01T07:43:25.097Z,12.45
2022-10-01T07:45:31.378Z,12.26
2022-10-01T07:47:38.395Z,12.5
2022-10-01T07:49:45.080Z,12.7
2022-10-01T07:51:51.406Z,12.77
2022-10-01T07:53:57.911Z,13.02
2022-10-01T07:56:04.502Z,12.95
2022-10-01T07:58:12.012Z,12.9
2022-10-01T08:00:18.340Z,13.04
2022-10-01T08:02:25.757Z,12.76
2022-10-01T08:04:32.776Z,12.76
2022-10-01T08:06:40.018Z,12.82
2022-10-01T08:08:48.355Z,12.75
2022-10-01T08:10:54.710Z,12.61
2022-10-01T08:13:02.044Z,12.46
2022-10-01T08:15:10.451Z,12.56
2022-10-01T08:17:16.794Z,12.72
2022-10-01T08:19:23.697Z,12.88
2022-10-01T08:21:30.387Z,12.63
2022-10-01T08:23:38.665Z,12.46
2022-10-01T08:25:45.221Z,12.54
2022-10-01T08:27:53.580Z,12.83
2022-10-01T08:30:00.314Z,12.75
2022-10-01T08:32:07.238Z,12.57
2022-10-01T08:34:16.394Z,12.32
2022-10-01T08:36:22.827Z,12.31
2022-10-01T08:38:31.388Z,12.62
2022-10-01T08:40:38.131Z,12.47
2022-10-01T08:42:50.408Z,12.37
2022-10-01T08:44:59.377Z,12.43
2022-10-01T08:47:06.030Z,12.36
2022-10-01T08:49:12.402Z,12.26
2022-10-01T08:51:18.832Z,12.35
2022-10-01T08:53:25.517Z,12.27
2022-10-01T08:55:34.090Z,12.37
2022-10-01T08:57:40.675Z,12.04
2022-10-01T08:59:47.344Z,12.07
2022-10-01T09:01:53.894Z,12.13
2022-10-01T09:04:00.422Z,12.3
2022-10-01T09:06:13.250Z,12.3
2022-10-01T09:08:19.468Z,12.34
2022-10-01T09:10:29.472Z,12.35
2022-10-01T09:12:36.167Z,12.37
2022-10-01T09:14:43.141Z,12.23
2022-10-01T09:16:49.513Z,12.2
2022-10-01T09:18:56.396Z,12.41
2022-10-01T09:21:03.122Z,12.49
2022-10-01T09:23:11.011Z,12.64
2022-10-01T09:25:17.291Z,12.77
2022-10-01T09:27:23.671Z,12.94
2022-10-01T09:29:30.199Z,12.84
2022-10-01T09:31:37.795Z,12.8
2022-10-01T09:36:12.441Z,12.65
2022-10-01T09:38:20.821Z,12.49
2022-10-01T09:40:28.236Z,12.43
2022-10-01T09:42:35.546Z,12.44
2022-10-01T09:44:41.930Z,12.53
2022-10-01T09:46:49.310Z,12.54
2022-10-01T09:48:58.366Z,12.48
2022-10-01T09:51:04.548Z,12.66
2022-10-01T09:53:14.558Z,12.57
2022-10-01T09:55:20.992Z,12.7
2022-10-01T09:57:27.425Z,12.68
2022-10-01T09:59:34.121Z,12.57
2022-10-01T10:01:40.468Z,12.71
2022-10-01T10:03:49.074Z,12.59
2022-10-01T10:05:55.610Z,12.55
2022-10-01T10:08:02.827Z,12.65
2022-10-01T10:10:09.779Z,12.7
2022-10-01T10:12:16.682Z,13
2022-10-01T10:14:24.940Z,13.45
2022-10-01T10:16:33.714Z,13.64
2022-10-01T10:18:41.979Z,13.74
2022-10-01T10:20:49.487Z,13.79
2022-10-01T10:22:56.211Z,13.66
2022-10-01T10:25:02.447Z,13.44
2022-10-01T10:27:12.492Z,13.46
2022-10-01T10:29:22.318Z,13.75
2022-10-01T10:31:28.861Z,13.68
2022-10-01T10:33:35.485Z,13.83
2022-10-01T10:35:45.395Z,13.67
2022-10-01T10:37:52.021Z,13.64
2022-10-01T10:39:58.826Z,13.58
2022-10-01T10:42:05.070Z,13.53
2022-10-01T10:44:11.456Z,13.76
2022-10-01T10:46:17.661Z,13.93
2022-10-01T10:48:24.596Z,14.07
2022-10-01T10:50:32.374Z,14.07
2022-10-01T10:52:43.789Z,13.93
2022-10-01T10:54:51.994Z,14.03
2022-10-01T10:57:00.028Z,14.24
2022-10-01T10:59:08.623Z,13.94
2022-10-01T11:01:15.044Z,13.8
2022-10-01T11:03:22.442Z,14.19
2022-10-01T11:05:30.916Z,14.3
2022-10-01T11:07:37.273Z,14.58
2022-10-01T11:09:43.579Z,14.9
2022-10-01T11:11:49.764Z,15.39
2022-10-01T11:13:56.297Z,16.18
2022-10-01T11:16:02.738Z,16.09
2022-10-01T11:18:09.963Z,15.91
2022-10-01T11:20:20.571Z,15.38
2022-10-01T11:22:28.506Z,14.97
2022-10-01T11:24:34.977Z,14.48
2022-10-01T11:26:41.333Z,14.35
2022-10-01T11:28:47.974Z,14.27
2022-10-01T11:30:54.276Z,14.4
2022-10-01T11:33:03.332Z,15.63
2022-10-01T11:35:13.482Z,15.7
2022-10-01T11:37:20.006Z,15.37
2022-10-01T11:39:26.170Z,15.08
2022-10-01T11:41:32.556Z,15.06
2022-10-01T11:43:38.978Z,15.56
2022-10-01T11:45:48.334Z,15.31
2022-10-01T11:47:57.662Z,15.23
2022-10-01T11:50:03.996Z,15.64
2022-10-01T11:52:11.191Z,16.71
2022-10-01T11:54:17.535Z,16.72
2022-10-01T11:56:30.281Z,16.61
2022-10-01T11:58:38.039Z,16.61
2022-10-01T12:00:44.954Z,16.42
2022-10-01T12:02:51.081Z,18.03
2022-10-01T12:04:57.647Z,18.38
2022-10-01T12:07:03.973Z,18.84
2022-10-01T12:09:11.925Z,19.02
2022-10-01T12:11:19.497Z,19.77
2022-10-01T12:13:31.275Z,19.71
2022-10-01T12:15:38.174Z,18.99
2022-10-01T12:17:44.900Z,17.67
2022-10-01T12:19:52.564Z,17.68
2022-10-01T12:22:01.277Z,17.49
2022-10-01T12:24:10.701Z,17.58
2022-10-01T12:26:17.794Z,18.16
2022-10-01T12:28:24.468Z,17.48
2022-10-01T12:30:31.462Z,18.34
2022-10-01T12:32:40.285Z,18.46
2022-10-01T12:34:51.782Z,18.12
2022-10-01T12:37:01.619Z,17.8
2022-10-01T12:39:08.236Z,16.94
2022-10-01T12:41:14.901Z,17.25
2022-10-01T12:43:21.511Z,17.17
2022-10-01T12:45:29.204Z,16.27
2022-10-01T12:47:39.451Z,15.76
2022-10-01T12:49:45.669Z,15.79
2022-10-01T12:51:52.102Z,15.53
2022-10-01T12:53:59.578Z,15.54
2022-10-01T12:56:08.276Z,15.85
2022-10-01T12:58:15.799Z,15.98
2022-10-01T13:00:23.864Z,16
2022-10-01T13:02:30.549Z,15.61
2022-10-01T13:04:37.001Z,15.4
2022-10-01T13:06:45.369Z,15.15
2022-10-01T13:08:52.152Z,15.22
2022-10-01T13:10:58.867Z,15.13
2022-10-01T13:13:05.498Z,15.25
2022-10-01T13:15:11.828Z,15.22
2022-10-01T13:17:18.260Z,15.48
2022-10-01T13:19:31.140Z,15.81
2022-10-01T13:21:38.817Z,15.82
2022-10-01T13:23:45.642Z,15.76
2022-10-01T13:25:52.814Z,15.89
2022-10-01T13:28:10.690Z,15.66
2022-10-01T13:30:20.691Z,15.56
2022-10-01T13:32:27.197Z,15.57
2022-10-01T13:34:33.946Z,15.26
2022-10-01T13:37:00.693Z,14.94
2022-10-01T13:39:10.410Z,14.69
2022-10-01T13:41:21.023Z,14.48
2022-10-01T13:43:27.907Z,14.7
2022-10-01T13:45:36.854Z,14.63
2022-10-01T13:47:46.508Z,14.42
2022-10-01T13:49:55.637Z,14.65
2022-10-01T13:52:03.173Z,14.53
2022-10-01T13:54:18.546Z,14.33
2022-10-01T13:56:30.740Z,14.19
2022-10-01T13:58:40.546Z,14.14
2022-10-01T14:00:47.106Z,14.07
2022-10-01T14:02:56.704Z,13.9
2022-10-01T14:05:03.721Z,13.85
2022-10-01T14:07:11.605Z,13.86
2022-10-01T14:09:19.479Z,13.87
2022-10-01T14:11:26.197Z,13.87
2022-10-01T14:13:33.636Z,13.76
2022-10-01T14:15:48.668Z,13.65
2022-10-01T14:18:00.791Z,13.65
2022-10-01T14:20:10.373Z,13.57
2022-10-01T14:22:18.168Z,13.57
2022-10-01T14:24:27.631Z,13.59
2022-10-01T14:26:34.209Z,13.53
2022-10-01T14:28:45.235Z,13.58
2022-10-01T14:30:51.605Z,13.62
2022-10-01T14:32:59.024Z,13.5
2022-10-01T14:35:06.069Z,13.56
2022-10-01T14:37:16.282Z,13.62
2022-10-01T14:44:47.540Z,13.43
2022-10-01T14:46:54.037Z,13.47
2022-10-01T14:49:00.509Z,13.54
2022-10-01T14:51:07.116Z,13.51
2022-10-01T14:53:13.622Z,13.39
2022-10-01T14:55:23.404Z,13.39
2022-10-01T14:57:31.434Z,13.28
2022-10-01T14:59:38.459Z,13.12
2022-10-01T15:01:45.696Z,13.19
2022-10-01T15:03:52.395Z,13.1
2022-10-01T15:05:58.948Z,13.13
2022-10-01T15:08:05.158Z,13.13
2022-10-01T15:10:11.682Z,13.17
2022-10-01T15:12:18.745Z,13.07
2022-10-01T15:14:24.999Z,13.07
2022-10-01T15:16:31.473Z,13.03
2022-10-01T15:18:40.910Z,13.04
2022-10-01T15:20:47.493Z,13.09
2022-10-01T15:22:55.879Z,13.03
2022-10-01T15:25:06.951Z,12.98
2022-10-01T15:27:14.875Z,12.94
2022-10-01T15:29:21.266Z,12.92
2022-10-01T15:31:28.233Z,12.93
2022-10-01T15:33:35.945Z,12.93
2022-10-01T15:35:42.944Z,12.9
2022-10-01T15:37:50.487Z,12.83
2022-10-01T15:39:57.224Z,12.77
2022-10-01T15:42:03.865Z,12.69
2022-10-01T15:44:10.029Z,12.66
2022-10-01T15:46:16.393Z,12.64
2022-10-01T15:48:23.062Z,12.59
2022-10-01T15:50:29.998Z,12.56
2022-10-01T15:52:36.651Z,12.53
2022-10-01T15:54:42.946Z,12.51
2022-10-01T15:56:49.553Z,12.47
2022-10-01T15:58:55.934Z,12.41
2022-10-01T16:01:02.288Z,12.36
2022-10-01T16:03:09.282Z,12.31
2022-10-01T16:05:15.794Z,12.31
2022-10-01T16:07:22.773Z,12.31
2022-10-01T16:09:28.940Z,12.27
2022-10-01T16:11:35.373Z,12.24
2022-10-01T16:13:41.949Z,12.2
2022-10-01T16:15:48.090Z,12.17
2022-10-01T16:17:54.626Z,12.16
2022-10-01T16:20:01.525Z,12.16
2022-10-01T16:22:08.268Z,12.15
2022-10-01T16:24:14.692Z,12.1
2022-10-01T16:26:21.611Z,12.08
2022-10-01T16:28:28.489Z,12.03
2022-10-01T16:30:34.878Z,12.01
2022-10-01T16:32:41.233Z,11.99
2022-10-01T16:34:47.471Z,11.96
2022-10-01T16:36:53.826Z,11.96
2022-10-01T16:39:00.794Z,11.94
2022-10-01T16:41:08.152Z,11.93
2022-10-01T16:43:14.632Z,11.9
2022-10-01T16:45:21.215Z,11.88
2022-10-01T16:47:27.950Z,11.88
2022-10-01T16:49:34.529Z,11.88
2022-10-01T16:51:43.144Z,11.87
2022-10-01T16:53:49.624Z,11.86
2022-10-01T16:55:56.043Z,11.85
2022-10-01T16:58:02.495Z,11.85
2022-10-01T17:00:09.501Z,11.84
2022-10-01T17:02:16.197Z,11.84
2022-10-01T17:04:23.027Z,11.81
2022-10-01T17:06:36.515Z,11.83
2022-10-01T17:08:43.372Z,11.81
2022-10-01T17:10:50.029Z,11.77
2022-10-01T17:12:56.359Z,11.75
2022-10-01T17:15:02.644Z,11.76
2022-10-01T17:17:09.054Z,11.76
2022-10-01T17:19:18.636Z,11.77
2022-10-01T17:21:25.474Z,11.75
2022-10-01T17:23:32.207Z,11.72
2022-10-01T17:25:39.025Z,11.77
2022-10-01T17:27:45.733Z,11.77
2022-10-01T17:29:52.688Z,11.76
2022-10-01T17:31:59.459Z,11.79
2022-10-01T17:34:06.216Z,11.78
2022-10-01T17:36:12.765Z,11.77
2022-10-01T17:38:19.350Z,11.75
2022-10-01T17:40:26.310Z,11.68
2022-10-01T17:42:33.029Z,11.64
2022-10-01T17:44:39.513Z,11.59
2022-10-01T17:46:46.014Z,11.56
2022-10-01T17:48:52.809Z,11.52
2022-10-01T17:50:59.806Z,11.48
2022-10-01T17:53:06.115Z,11.43
2022-10-01T17:55:12.893Z,11.39
2022-10-01T17:57:21.597Z,11.36
2022-10-01T17:59:28.081Z,11.35
2022-10-01T18:01:34.697Z,11.32
2022-10-01T18:03:41.288Z,11.29
2022-10-01T18:05:47.645Z,11.27
2022-10-01T18:07:54.098Z,11.27
2022-10-01T18:10:00.852Z,11.28
2022-10-01T18:12:07.382Z,11.28
2022-10-01T18:14:13.737Z,11.27
2022-10-01T18:16:19.996Z,11.28
2022-10-01T18:22:13.497Z,11.3
2022-10-01T18:24:21.231Z,11.3
2022-10-01T18:26:27.880Z,11.29
2022-10-01T18:28:35.100Z,11.27
2022-10-01T18:30:41.968Z,11.24
2022-10-01T18:32:48.697Z,11.22
2022-10-01T18:34:54.944Z,11.21
2022-10-01T18:37:01.862Z,11.24
2022-10-01T18:39:09.531Z,11.26
2022-10-01T18:41:16.176Z,11.25
2022-10-01T18:43:24.240Z,11.24
2022-10-01T18:45:30.711Z,11.22
2022-10-01T18:47:38.575Z,11.23
2022-10-01T18:49:45.176Z,11.19
2022-10-01T18:51:52.210Z,11.15
2022-10-01T18:53:59.218Z,11.1
2022-10-01T18:56:05.635Z,11.06
2022-10-01T18:58:13.159Z,11.02
2022-10-01T19:00:20.125Z,10.99
2022-10-01T19:02:26.942Z,10.95
2022-10-01T19:04:34.393Z,10.93
2022-10-01T19:06:41.544Z,10.91
2022-10-01T19:08:48.753Z,10.89
2022-10-01T19:10:55.076Z,10.86
2022-10-01T19:13:02.546Z,10.85
2022-10-01T19:15:10.145Z,10.83
2022-10-01T19:17:18.705Z,10.83
2022-10-01T19:19:25.545Z,10.82
2022-10-01T19:21:33.118Z,10.8
2022-10-01T19:23:42.139Z,10.78
2022-10-01T19:25:48.847Z,10.77
2022-10-01T19:27:55.520Z,10.76
2022-10-01T19:30:02.416Z,10.74
2022-10-01T19:32:10.445Z,10.72
2022-10-01T19:34:18.373Z,10.7
2022-10-01T19:36:25.606Z,10.67
2022-10-01T19:38:39.082Z,10.67
2022-10-01T19:40:47.299Z,10.64
2022-10-01T19:42:55.477Z,10.62
2022-10-01T19:45:03.243Z,10.59
2022-10-01T19:47:11.318Z,10.58
2022-10-01T19:49:18.395Z,10.58
2022-10-01T19:51:25.362Z,10.62
2022-10-01T19:53:34.573Z,10.63
2022-10-01T19:55:41.422Z,10.61
2022-10-01T19:57:47.922Z,10.61
2022-10-01T19:59:55.488Z,10.61
2022-10-01T20:02:03.610Z,10.61
2022-10-01T20:04:12.148Z,10.63
2022-10-01T20:06:18.591Z,10.64
2022-10-01T20:08:26.185Z,10.65
2022-10-01T20:10:32.827Z,10.63
2022-10-01T20:12:40.050Z,10.64
2022-10-01T20:14:47.691Z,10.61
2022-10-01T20:16:55.124Z,10.64
2022-10-01T20:19:02.203Z,10.65
2022-10-01T20:21:10.320Z,10.65
2022-10-01T20:23:18.346Z,10.66
2022-10-01T20:25:25.178Z,10.67
2022-10-01T20:27:31.687Z,10.66
2022-10-01T20:29:38.522Z,10.65
2022-10-01T20:31:45.543Z,10.63
2022-10-01T20:33:53.264Z,10.65
2022-10-01T20:36:00.232Z,10.66
2022-10-01T20:38:07.713Z,10.63
2022-10-01T20:40:14.657Z,10.68
2022-10-01T20:42:21.338Z,10.72
2022-10-01T20:44:28.287Z,10.73
2022-10-01T20:46:35.670Z,10.73
2022-10-01T20:48:43.212Z,10.78
2022-10-01T20:50:50.073Z,10.82
2022-10-01T20:52:57.277Z,10.85
2022-10-01T20:55:04.398Z,10.88
2022-10-01T20:57:11.590Z,10.91
2022-10-01T20:59:18.363Z,10.93
2022-10-01T21:01:25.226Z,10.95
2022-10-01T21:03:31.911Z,10.97
2022-10-01T21:05:38.822Z,11.01
2022-10-01T21:07:45.407Z,11.06
2022-10-01T21:09:52.851Z,11.06
2022-10-01T21:11:59.253Z,11.08
2022-10-01T21:14:05.485Z,11.07
2022-10-01T21:16:11.869Z,11.13
2022-10-01T21:18:19.288Z,11.19
2022-10-01T21:20:26.650Z,11.24
2022-10-01T21:22:35.955Z,11.29
2022-10-01T21:24:42.123Z,11.33
2022-10-01T21:26:49.561Z,11.33
2022-10-01T21:28:56.905Z,11.36
2022-10-01T21:31:04.703Z,11.3
2022-10-01T21:33:13.438Z,11.35
2022-10-01T21:35:21.163Z,11.37
2022-10-01T21:37:28.198Z,11.4
2022-10-01T21:39:35.592Z,11.43
2022-10-01T21:41:42.809Z,11.4
2022-10-01T21:43:50.686Z,11.36
2022-10-01T21:46:02.830Z,11.36
2022-10-01T21:48:09.847Z,11.35
2022-10-01T21:50:16.416Z,11.37
2022-10-01T21:52:23.029Z,11.37
2022-10-01T21:54:29.300Z,11.36
2022-10-01T21:56:36.405Z,11.35
2022-10-01T21:58:47.463Z,11.35
2022-10-01T22:00:55.575Z,11.31
2022-10-01T22:03:02.672Z,11.22
2022-10-01T22:05:09.250Z,11.2
2022-10-01T22:07:16.518Z,11.15
2022-10-01T22:09:23.965Z,11.16
2022-10-01T22:11:30.599Z,11.15
2022-10-01T22:13:36.992Z,11.12
2022-10-01T22:15:43.806Z,11.14
2022-10-01T22:17:50.546Z,11.09
2022-10-01T22:19:57.051Z,11.02
2022-10-01T22:22:03.642Z,11.01
2022-10-01T22:24:10.295Z,10.97
2022-10-01T22:26:17.305Z,10.89
2022-10-01T22:28:24.104Z,10.87
2022-10-01T22:30:30.652Z,10.85
2022-10-01T22:32:37.243Z,10.85
2022-10-01T22:34:43.586Z,10.81
2022-10-01T22:36:49.725Z,10.79
2022-10-01T22:38:55.890Z,10.81
2022-10-01T22:41:02.135Z,10.79
2022-10-01T22:43:08.332Z,10.8
2022-10-01T22:45:14.802Z,10.69
2022-10-01T22:47:21.517Z,10.69
2022-10-01T22:49:27.829Z,10.72
2022-10-01T22:51:34.146Z,10.73
2022-10-01T22:53:40.785Z,10.71
2022-10-01T22:55:47.177Z,10.66
2022-10-01T22:57:53.324Z,10.64
2022-10-01T22:59:59.733Z,10.59
2022-10-01T23:02:06.078Z,10.56
2022-10-01T23:04:12.720Z,10.52
2022-10-01T23:06:19.086Z,10.51
2022-10-01T23:08:25.264Z,10.47
2022-10-01T23:10:32.274Z,10.43
2022-10-01T23:12:38.246Z,10.43
2022-10-01T23:14:43.953Z,10.44
2022-10-01T23:16:49.751Z,10.4
2022-10-01T23:18:55.970Z,10.39
2022-10-01T23:21:02.062Z,10.38
2022-10-01T23:23:08.023Z,10.37
2022-10-01T23:25:14.370Z,10.38
2022-10-01T23:27:20.597Z,10.44
2022-10-01T23:29:27.096Z,10.42
2022-10-01T23:31:33.353Z,10.42
2022-10-01T23:33:39.739Z,10.48
2022-10-01T23:35:45.974Z,10.52
2022-10-01T23:37:51.835Z,10.52
2022-10-01T23:39:58.171Z,10.51
2022-10-01T23:42:04.003Z,10.55
2022-10-01T23:44:09.486Z,10.58
2022-10-01T23:46:15.437Z,10.58
2022-10-01T23:48:21.431Z,10.6
2022-10-01T23:50:27.462Z,10.56
2022-10-01T23:52:32.999Z,10.6
2022-10-01T23:54:38.630Z,10.58
2022-10-01T23:56:44.335Z,10.61
2022-10-01T23:58:50.114Z,10.65
